createdAt,value
2023-01-04T00:00:23.506Z,5.47
2023-01-04T00:01:23.441Z,5.35
2023-01-04T00:02:23.680Z,5.42
2023-01-04T00:03:23.546Z,5.47
2023-01-04T00:04:23.393Z,5.47
2023-01-04T00:05:23.378Z,5.49
2023-01-04T00:06:23.389Z,5.45
2023-01-04T00:07:23.383Z,5.41
2023-01-04T00:08:23.366Z,5.38
2023-01-04T00:09:23.356Z,5.38
2023-01-04T00:10:23.341Z,5.48
2023-01-04T00:11:23.345Z,5.55
2023-01-04T00:12:23.334Z,5.48
2023-01-04T00:13:23.310Z,5.44
2023-01-04T00:14:23.298Z,5.48
2023-01-04T00:15:23.289Z,5.40
2023-01-04T00:16:23.333Z,5.35
2023-01-04T00:17:23.284Z,5.42
2023-01-04T00:18:23.266Z,5.37
2023-01-04T00:19:23.258Z,5.32
2023-01-04T00:20:23.248Z,5.41
2023-01-04T00:21:23.258Z,5.35
2023-01-04T00:22:23.246Z,5.33
2023-01-04T00:23:23.227Z,5.38
2023-01-04T00:24:23.212Z,5.33
2023-01-04T00:25:23.198Z,5.42
2023-01-04T00:26:23.198Z,5.40
2023-01-04T00:27:23.206Z,5.44
2023-01-04T00:28:23.180Z,5.47
2023-01-04T00:29:23.175Z,5.37
2023-01-04T00:30:23.164Z,5.44
2023-01-04T00:31:23.214Z,5.38
2023-01-04T00:32:23.163Z,5.37
2023-01-04T00:33:23.150Z,5.42
2023-01-04T00:34:23.126Z,5.37
2023-01-04T00:35:44.739Z,5.45
2023-01-04T00:36:25.124Z,5.41
2023-01-04T00:37:23.115Z,5.42
2023-01-04T00:38:23.094Z,5.44
2023-01-04T00:39:23.079Z,5.44
2023-01-04T00:40:23.076Z,5.35
2023-01-04T00:41:56.904Z,5.44
2023-01-04T00:42:25.088Z,5.47
2023-01-04T00:43:23.047Z,5.42
2023-01-04T00:44:23.040Z,5.40
2023-01-04T00:45:23.032Z,5.40
2023-01-04T00:46:23.070Z,5.47
2023-01-04T00:47:23.020Z,5.42
2023-01-04T00:48:24.024Z,5.47
2023-01-04T00:49:23.014Z,5.45
2023-01-04T00:50:22.999Z,5.37
2023-01-04T00:51:22.981Z,5.48
2023-01-04T00:52:22.984Z,5.47
2023-01-04T00:53:22.979Z,5.48
2023-01-04T00:54:22.966Z,5.48
2023-01-04T00:55:22.954Z,5.47
2023-01-04T00:56:22.947Z,5.44
2023-01-04T00:57:22.948Z,5.49
2023-01-04T00:58:22.921Z,5.44
2023-01-04T00:59:22.935Z,5.42
2023-01-04T01:00:22.913Z,5.55
2023-01-04T01:01:22.991Z,5.52
2023-01-04T01:02:23.289Z,5.44
2023-01-04T01:03:23.015Z,5.48
2023-01-04T01:04:23.047Z,5.47
2023-01-04T01:05:22.862Z,5.45
2023-01-04T01:06:22.860Z,5.49
2023-01-04T01:07:22.858Z,5.47
2023-01-04T01:08:23.842Z,5.52
2023-01-04T01:09:23.232Z,5.56
2023-01-04T01:10:22.816Z,5.47
2023-01-04T01:11:22.814Z,5.52
2023-01-04T01:12:22.816Z,5.51
2023-01-04T01:13:22.784Z,5.48
2023-01-04T01:14:23.782Z,5.49
2023-01-04T01:15:22.770Z,5.47
2023-01-04T01:16:44.343Z,5.44
2023-01-04T01:17:24.779Z,5.48
2023-01-04T01:18:22.747Z,5.42
2023-01-04T01:19:22.742Z,5.44
2023-01-04T01:20:22.741Z,5.51
2023-01-04T01:21:22.730Z,5.47
2023-01-04T01:22:22.732Z,5.44
2023-01-04T01:23:22.707Z,5.56
2023-01-04T01:24:22.700Z,5.47
2023-01-04T01:25:22.692Z,5.55
2023-01-04T01:26:22.691Z,5.45
2023-01-04T01:27:22.674Z,5.59
2023-01-04T01:28:22.681Z,5.42
2023-01-04T01:29:22.657Z,5.49
2023-01-04T01:30:22.656Z,5.47
2023-01-04T01:31:22.710Z,5.40
2023-01-04T01:32:22.644Z,5.48
2023-01-04T01:33:22.636Z,5.49
2023-01-04T01:34:22.629Z,5.51
2023-01-04T01:35:22.629Z,5.48
2023-01-04T01:36:22.607Z,5.49
2023-01-04T01:37:22.596Z,5.55
2023-01-04T01:38:22.598Z,5.47
2023-01-04T01:39:22.578Z,5.58
2023-01-04T01:40:22.575Z,5.58
2023-01-04T01:41:22.573Z,5.59
2023-01-04T01:42:22.547Z,5.60
2023-01-04T01:43:22.557Z,5.62
2023-01-04T01:44:22.531Z,5.67
2023-01-04T01:45:22.524Z,5.62
2023-01-04T01:46:22.573Z,5.63
2023-01-04T01:47:22.505Z,5.62
2023-01-04T01:48:22.515Z,5.69
2023-01-04T01:49:22.488Z,5.65
2023-01-04T01:50:22.483Z,5.66
2023-01-04T01:51:22.472Z,5.70
2023-01-04T01:52:22.491Z,5.56
2023-01-04T01:53:22.465Z,5.75
2023-01-04T01:54:22.451Z,5.70
2023-01-04T01:55:22.433Z,5.77
2023-01-04T01:56:22.427Z,5.74
2023-01-04T01:57:22.436Z,5.67
2023-01-04T01:58:22.418Z,5.69
2023-01-04T01:59:22.432Z,5.63
2023-01-04T02:00:22.405Z,5.78
2023-01-04T02:01:22.472Z,5.75
2023-01-04T02:02:22.608Z,5.70
2023-01-04T02:03:22.623Z,5.81
2023-01-04T02:04:22.357Z,5.84
2023-01-04T02:05:22.348Z,5.77
2023-01-04T02:06:22.338Z,5.84
2023-01-04T02:07:22.336Z,5.78
2023-01-04T02:08:22.334Z,5.85
2023-01-04T02:09:22.308Z,5.83
2023-01-04T02:10:22.300Z,5.73
2023-01-04T02:11:22.290Z,5.74
2023-01-04T02:12:22.289Z,5.81
2023-01-04T02:13:22.302Z,5.75
2023-01-04T02:14:22.262Z,5.80
2023-01-04T02:15:22.251Z,5.77
2023-01-04T02:16:22.280Z,5.78
2023-01-04T02:17:22.235Z,5.75
2023-01-04T02:18:22.240Z,5.70
2023-01-04T02:19:22.224Z,5.73
2023-01-04T02:20:22.220Z,5.70
2023-01-04T02:21:22.201Z,5.78
2023-01-04T02:22:22.193Z,5.70
2023-01-04T02:23:22.224Z,5.70
2023-01-04T02:24:22.181Z,5.70
2023-01-04T02:25:22.181Z,5.75
2023-01-04T02:26:22.164Z,5.77
2023-01-04T02:27:22.161Z,5.80
2023-01-04T02:28:22.167Z,5.70
2023-01-04T02:29:22.132Z,5.67
2023-01-04T02:30:22.127Z,5.67
2023-01-04T02:31:22.229Z,5.66
2023-01-04T02:32:22.105Z,5.63
2023-01-04T02:33:22.123Z,5.70
2023-01-04T02:34:22.093Z,5.70
2023-01-04T02:35:22.084Z,5.75
2023-01-04T02:36:22.073Z,5.73
2023-01-04T02:37:22.086Z,5.74
2023-01-04T02:38:22.063Z,5.65
2023-01-04T02:39:22.073Z,5.59
2023-01-04T02:40:22.053Z,5.81
2023-01-04T02:41:22.032Z,5.81
2023-01-04T02:42:22.035Z,5.70
2023-01-04T02:43:22.150Z,5.67
2023-01-04T02:44:22.116Z,5.63
2023-01-04T02:45:21.998Z,5.78
2023-01-04T02:46:22.058Z,5.65
2023-01-04T02:47:21.980Z,5.69
2023-01-04T02:48:22.055Z,5.73
2023-01-04T02:49:21.970Z,5.67
2023-01-04T02:50:21.963Z,5.69
2023-01-04T02:51:21.948Z,5.66
2023-01-04T02:52:21.933Z,5.66
2023-01-04T02:53:21.951Z,5.66
2023-01-04T02:54:21.918Z,5.69
2023-01-04T02:55:21.909Z,5.77
2023-01-04T02:56:21.909Z,5.73
2023-01-04T02:57:21.921Z,5.67
2023-01-04T02:58:21.886Z,5.83
2023-01-04T02:59:21.882Z,5.80
2023-01-04T03:00:21.863Z,5.63
2023-01-04T03:01:22.007Z,5.81
2023-01-04T03:02:22.115Z,5.78
2023-01-04T03:03:22.095Z,5.75
2023-01-04T03:04:21.828Z,5.80
2023-01-04T03:05:21.826Z,5.77
2023-01-04T03:06:21.807Z,5.70
2023-01-04T03:07:21.802Z,5.78
2023-01-04T03:08:21.803Z,5.70
2023-01-04T03:09:21.791Z,5.70
2023-01-04T03:10:21.770Z,5.63
2023-01-04T03:11:21.773Z,5.70
2023-01-04T03:12:21.757Z,5.80
2023-01-04T03:13:21.781Z,5.69
2023-01-04T03:14:31.479Z,5.74
2023-01-04T03:15:22.732Z,5.78
2023-01-04T03:16:21.757Z,5.74
2023-01-04T03:17:21.763Z,5.66
2023-01-04T03:18:21.721Z,5.73
2023-01-04T03:19:21.692Z,5.67
2023-01-04T03:20:21.683Z,5.80
2023-01-04T03:21:21.677Z,5.75
2023-01-04T03:22:21.669Z,5.81
2023-01-04T03:23:21.683Z,5.70
2023-01-04T03:24:21.667Z,5.74
2023-01-04T03:25:21.638Z,5.65
2023-01-04T03:26:21.628Z,5.80
2023-01-04T03:27:21.624Z,5.74
2023-01-04T03:28:21.630Z,5.75
2023-01-04T03:29:21.599Z,5.80
2023-01-04T03:30:21.597Z,5.78
2023-01-04T03:31:21.655Z,5.70
2023-01-04T03:32:21.578Z,5.70
2023-01-04T03:33:21.590Z,5.75
2023-01-04T03:34:21.571Z,5.73
2023-01-04T03:35:21.555Z,5.74
2023-01-04T03:36:21.541Z,5.75
2023-01-04T03:37:21.539Z,5.75
2023-01-04T03:38:21.538Z,5.83
2023-01-04T03:39:21.575Z,5.84
2023-01-04T03:40:21.521Z,5.84
2023-01-04T03:41:21.509Z,5.83
2023-01-04T03:42:21.496Z,5.84
2023-01-04T03:43:21.522Z,5.85
2023-01-04T03:44:21.481Z,5.83
2023-01-04T03:45:21.469Z,5.88
2023-01-04T03:46:21.543Z,5.84
2023-01-04T03:47:21.446Z,5.87
2023-01-04T03:48:21.473Z,5.87
2023-01-04T03:49:21.433Z,5.87
2023-01-04T03:50:21.445Z,5.84
2023-01-04T03:51:21.427Z,5.78
2023-01-04T03:52:21.413Z,5.85
2023-01-04T03:53:21.409Z,5.81
2023-01-04T03:54:21.397Z,5.81
2023-01-04T03:55:21.381Z,5.83
2023-01-04T03:56:21.382Z,5.81
2023-01-04T03:57:21.363Z,5.84
2023-01-04T03:58:21.386Z,5.81
2023-01-04T03:59:21.350Z,5.88
2023-01-04T04:00:21.344Z,5.81
2023-01-04T04:01:21.422Z,5.77
2023-01-04T04:02:21.407Z,5.78
2023-01-04T04:03:21.322Z,5.85
2023-01-04T04:04:21.394Z,5.67
2023-01-04T04:05:21.298Z,5.73
2023-01-04T04:06:21.281Z,5.75
2023-01-04T04:07:21.300Z,5.74
2023-01-04T04:08:21.307Z,5.74
2023-01-04T04:09:21.269Z,5.62
2023-01-04T04:10:21.256Z,5.70
2023-01-04T04:11:21.293Z,5.73
2023-01-04T04:12:21.248Z,5.75
2023-01-04T04:13:21.247Z,5.77
2023-01-04T04:14:21.211Z,5.69
2023-01-04T04:15:21.276Z,5.69
2023-01-04T04:16:21.269Z,5.78
2023-01-04T04:17:21.187Z,5.70
2023-01-04T04:18:21.180Z,5.75
2023-01-04T04:19:21.183Z,5.75
2023-01-04T04:20:21.173Z,5.70
2023-01-04T04:21:21.159Z,5.67
2023-01-04T04:22:21.148Z,5.60
2023-01-04T04:23:21.149Z,5.70
2023-01-04T04:24:21.146Z,5.67
2023-01-04T04:25:21.122Z,5.66
2023-01-04T04:26:21.116Z,5.63
2023-01-04T04:27:21.104Z,5.77
2023-01-04T04:28:21.136Z,5.67
2023-01-04T04:29:21.101Z,5.78
2023-01-04T04:30:21.081Z,5.70
2023-01-04T04:31:21.111Z,5.65
2023-01-04T04:32:21.067Z,5.66
2023-01-04T04:33:21.060Z,5.70
2023-01-04T04:34:21.066Z,5.56
2023-01-04T04:35:21.046Z,5.73
2023-01-04T04:36:21.038Z,5.75
2023-01-04T04:37:21.022Z,5.65
2023-01-04T04:38:21.026Z,5.73
2023-01-04T04:39:21.012Z,5.70
2023-01-04T04:40:20.991Z,5.74
2023-01-04T04:41:21.000Z,5.69
2023-01-04T04:42:20.979Z,5.66
2023-01-04T04:43:20.966Z,5.69
2023-01-04T04:44:20.974Z,5.60
2023-01-04T04:45:20.953Z,5.66
2023-01-04T04:46:20.983Z,5.52
2023-01-04T04:47:20.938Z,5.74
2023-01-04T04:48:20.933Z,5.69
2023-01-04T04:49:20.946Z,5.65
2023-01-04T04:50:20.912Z,5.58
2023-01-04T04:51:20.930Z,5.69
2023-01-04T04:52:20.895Z,5.65
2023-01-04T04:53:20.884Z,5.69
2023-01-04T04:54:20.888Z,5.70
2023-01-04T04:55:20.901Z,5.59
2023-01-04T04:56:20.868Z,5.55
2023-01-04T04:57:20.853Z,5.59
2023-01-04T04:58:20.853Z,5.60
2023-01-04T04:59:20.844Z,5.65
2023-01-04T05:00:20.831Z,5.56
2023-01-04T05:01:20.964Z,5.62
2023-01-04T05:02:21.043Z,5.56
2023-01-04T05:03:20.841Z,5.58
2023-01-04T05:04:20.821Z,5.59
2023-01-04T05:05:20.787Z,5.52
2023-01-04T05:06:20.766Z,5.48
2023-01-04T05:07:20.764Z,5.62
2023-01-04T05:08:20.756Z,5.56
2023-01-04T05:09:20.763Z,5.62
2023-01-04T05:10:20.738Z,5.62
2023-01-04T05:11:20.732Z,5.60
2023-01-04T05:12:20.724Z,5.58
2023-01-04T05:13:20.710Z,5.59
2023-01-04T05:14:20.720Z,5.60
2023-01-04T05:15:20.694Z,5.52
2023-01-04T05:16:20.709Z,5.56
2023-01-04T05:17:20.678Z,5.49
2023-01-04T05:18:20.668Z,5.62
2023-01-04T05:19:20.676Z,5.63
2023-01-04T05:20:20.657Z,5.59
2023-01-04T05:21:20.665Z,5.52
2023-01-04T05:22:20.635Z,5.65
2023-01-04T05:23:20.627Z,5.66
2023-01-04T05:24:20.657Z,5.56
2023-01-04T05:25:20.614Z,5.56
2023-01-04T05:26:20.600Z,5.70
2023-01-04T05:27:20.592Z,5.60
2023-01-04T05:28:20.577Z,5.60
2023-01-04T05:29:20.573Z,5.65
2023-01-04T05:30:21.564Z,5.74
2023-01-04T05:31:20.683Z,5.65
2023-01-04T05:32:20.546Z,5.66
2023-01-04T05:33:20.537Z,5.66
2023-01-04T05:34:22.429Z,5.66
2023-01-04T05:35:21.527Z,5.74
2023-01-04T05:36:20.508Z,5.70
2023-01-04T05:37:20.497Z,5.77
2023-01-04T05:38:20.493Z,5.65
2023-01-04T05:39:20.495Z,5.70
2023-01-04T05:40:20.469Z,5.70
2023-01-04T05:41:20.469Z,5.69
2023-01-04T05:42:20.451Z,5.69
2023-01-04T05:43:20.457Z,5.74
2023-01-04T05:44:20.443Z,5.63
2023-01-04T05:45:20.441Z,5.70
2023-01-04T05:46:20.483Z,5.83
2023-01-04T05:47:20.415Z,5.65
2023-01-04T05:48:20.393Z,5.78
2023-01-04T05:49:21.401Z,5.63
2023-01-04T05:50:20.382Z,5.77
2023-01-04T05:51:20.375Z,5.63
2023-01-04T05:52:20.378Z,5.65
2023-01-04T05:53:20.365Z,5.70
2023-01-04T05:54:21.682Z,5.83
2023-01-04T05:55:21.338Z,5.74
2023-01-04T05:56:20.352Z,5.74
2023-01-04T05:57:20.328Z,5.67
2023-01-04T05:58:20.314Z,5.70
2023-01-04T05:59:20.315Z,5.81
2023-01-04T06:00:20.299Z,5.73
2023-01-04T06:01:20.323Z,5.81
2023-01-04T06:02:20.310Z,5.66
2023-01-04T06:03:20.442Z,5.77
2023-01-04T06:04:20.293Z,5.78
2023-01-04T06:05:20.259Z,5.78
2023-01-04T06:06:20.255Z,5.74
2023-01-04T06:07:20.236Z,5.66
2023-01-04T06:08:20.239Z,5.73
2023-01-04T06:09:20.419Z,5.75
2023-01-04T06:10:20.212Z,5.83
2023-01-04T06:11:25.571Z,5.69
2023-01-04T06:12:22.189Z,5.70
2023-01-04T06:13:20.182Z,5.70
2023-01-04T06:14:20.186Z,5.77
2023-01-04T06:15:20.163Z,5.77
2023-01-04T06:16:20.226Z,5.67
2023-01-04T06:17:20.144Z,5.70
2023-01-04T06:18:20.131Z,5.75
2023-01-04T06:19:20.140Z,5.69
2023-01-04T06:20:20.126Z,5.74
2023-01-04T06:21:20.106Z,5.83
2023-01-04T06:22:20.102Z,5.77
2023-01-04T06:23:20.094Z,5.73
2023-01-04T06:24:20.094Z,5.80
2023-01-04T06:25:20.072Z,5.69
2023-01-04T06:26:20.065Z,5.60
2023-01-04T06:27:20.105Z,5.70
2023-01-04T06:28:20.055Z,5.75
2023-01-04T06:29:20.056Z,5.69
2023-01-04T06:30:20.045Z,5.59
2023-01-04T06:31:20.108Z,5.66
2023-01-04T06:32:20.025Z,5.70
2023-01-04T06:33:20.032Z,5.78
2023-01-04T06:34:22.864Z,5.77
2023-01-04T06:35:20.994Z,5.69
2023-01-04T06:36:20.485Z,5.58
2023-01-04T06:37:19.988Z,5.59
2023-01-04T06:38:19.970Z,5.67
2023-01-04T06:39:19.971Z,5.67
2023-01-04T06:40:19.952Z,5.77
2023-01-04T06:41:19.937Z,5.70
2023-01-04T06:42:19.929Z,5.65
2023-01-04T06:43:19.924Z,5.67
2023-01-04T06:44:19.937Z,5.70
2023-01-04T06:45:19.907Z,5.70
2023-01-04T06:46:19.947Z,5.59
2023-01-04T06:47:19.884Z,5.74
2023-01-04T06:48:19.892Z,5.65
2023-01-04T06:49:19.884Z,5.59
2023-01-04T06:50:19.861Z,5.69
2023-01-04T06:51:19.853Z,5.67
2023-01-04T06:52:19.878Z,5.69
2023-01-04T06:53:19.833Z,5.74
2023-01-04T06:54:19.837Z,5.73
2023-01-04T06:55:19.820Z,5.70
2023-01-04T06:56:19.812Z,5.74
2023-01-04T06:57:19.809Z,5.67
2023-01-04T06:58:19.794Z,5.70
2023-01-04T06:59:19.793Z,5.59
2023-01-04T07:00:19.780Z,5.62
2023-01-04T07:01:19.823Z,5.73
2023-01-04T07:02:19.953Z,5.69
2023-01-04T07:03:19.839Z,5.75
2023-01-04T07:04:19.793Z,5.59
2023-01-04T07:05:19.736Z,5.70
2023-01-04T07:06:19.726Z,5.66
2023-01-04T07:07:19.723Z,5.70
2023-01-04T07:08:19.707Z,5.67
2023-01-04T07:09:19.736Z,5.70
2023-01-04T07:10:19.696Z,5.70
2023-01-04T07:11:19.681Z,5.77
2023-01-04T07:12:19.671Z,5.70
2023-01-04T07:13:19.671Z,5.69
2023-01-04T07:14:19.676Z,5.77
2023-01-04T07:15:37.939Z,5.80
2023-01-04T07:16:20.725Z,5.70
2023-01-04T07:17:22.486Z,5.75
2023-01-04T07:18:20.620Z,5.81
2023-01-04T07:19:19.606Z,5.85
2023-01-04T07:20:19.957Z,5.81
2023-01-04T07:21:19.593Z,5.80
2023-01-04T07:22:19.582Z,5.75
2023-01-04T07:23:19.585Z,5.74
2023-01-04T07:24:22.354Z,5.83
2023-01-04T07:25:20.567Z,5.77
2023-01-04T07:26:19.558Z,5.77
2023-01-04T07:27:19.559Z,5.81
2023-01-04T07:28:19.541Z,5.84
2023-01-04T07:29:19.555Z,5.81
2023-01-04T07:30:19.539Z,5.73
2023-01-04T07:31:19.582Z,5.80
2023-01-04T07:32:19.503Z,5.78
2023-01-04T07:33:19.495Z,5.78
2023-01-04T07:34:19.496Z,5.80
2023-01-04T07:35:19.502Z,5.90
2023-01-04T07:36:19.482Z,5.88
2023-01-04T07:37:19.469Z,5.81
2023-01-04T07:38:19.460Z,5.83
2023-01-04T07:39:19.501Z,5.87
2023-01-04T07:40:19.454Z,5.87
2023-01-04T07:41:19.437Z,5.81
2023-01-04T07:42:19.421Z,5.80
2023-01-04T07:43:22.798Z,5.80
2023-01-04T07:44:21.412Z,5.84
2023-01-04T07:45:19.414Z,5.85
2023-01-04T07:46:19.451Z,5.87
2023-01-04T07:47:19.386Z,5.85
2023-01-04T07:48:19.379Z,5.80
2023-01-04T07:49:19.374Z,5.87
2023-01-04T07:50:19.363Z,5.85
2023-01-04T07:51:19.362Z,5.93
2023-01-04T07:52:19.344Z,5.80
2023-01-04T07:53:19.343Z,5.93
2023-01-04T07:54:19.324Z,5.98
2023-01-04T07:55:19.384Z,5.84
2023-01-04T07:56:19.301Z,5.88
2023-01-04T07:57:19.310Z,5.81
2023-01-04T07:58:19.293Z,5.93
2023-01-04T07:59:19.278Z,5.93
2023-01-04T08:00:19.286Z,5.88
2023-01-04T08:01:19.490Z,5.96
2023-01-04T08:02:19.344Z,6.01
2023-01-04T08:03:19.247Z,5.98
2023-01-04T08:04:19.266Z,5.96
2023-01-04T08:05:19.324Z,5.98
2023-01-04T08:06:19.219Z,5.98
2023-01-04T08:07:19.208Z,6.05
2023-01-04T08:08:19.211Z,5.96
2023-01-04T08:09:19.187Z,5.95
2023-01-04T08:10:19.204Z,5.98
2023-01-04T08:11:19.253Z,6.01
2023-01-04T08:12:19.165Z,6.01
2023-01-04T08:13:19.164Z,6.08
2023-01-04T08:14:19.149Z,6.01
2023-01-04T08:15:19.164Z,6.06
2023-01-04T08:16:19.189Z,6.05
2023-01-04T08:17:19.127Z,6.03
2023-01-04T08:18:20.642Z,6.01
2023-01-04T08:19:20.111Z,6.05
2023-01-04T08:20:19.111Z,5.98
2023-01-04T08:21:19.081Z,6.05
2023-01-04T08:22:19.087Z,6.10
2023-01-04T08:23:19.067Z,5.98
2023-01-04T08:24:19.077Z,6.14
2023-01-04T08:25:19.068Z,6.11
2023-01-04T08:26:19.046Z,6.02
2023-01-04T08:27:19.036Z,6.19
2023-01-04T08:28:19.030Z,6.08
2023-01-04T08:29:19.020Z,6.08
2023-01-04T08:30:19.019Z,6.14
2023-01-04T08:31:19.085Z,6.03
2023-01-04T08:32:18.998Z,6.05
2023-01-04T08:33:18.984Z,6.16
2023-01-04T08:34:18.979Z,6.10
2023-01-04T08:35:18.974Z,6.14
2023-01-04T08:36:24.390Z,6.14
2023-01-04T08:37:20.988Z,6.25
2023-01-04T08:38:58.318Z,6.16
2023-01-04T08:39:20.936Z,6.24
2023-01-04T08:40:18.935Z,6.16
2023-01-04T08:41:47.090Z,6.11
2023-01-04T08:42:28.496Z,6.17
2023-01-04T08:43:20.916Z,6.24
2023-01-04T08:44:18.883Z,6.19
2023-01-04T08:45:18.888Z,6.19
2023-01-04T08:46:18.918Z,6.28
2023-01-04T08:47:19.861Z,6.24
2023-01-04T08:48:24.363Z,6.25
2023-01-04T08:49:20.856Z,6.30
2023-01-04T08:50:18.849Z,6.28
2023-01-04T08:51:18.827Z,6.27
2023-01-04T08:52:18.829Z,6.16
2023-01-04T08:53:18.810Z,6.32
2023-01-04T08:54:18.828Z,6.25
2023-01-04T08:55:23.145Z,6.32
2023-01-04T08:56:19.782Z,6.35
2023-01-04T08:57:18.798Z,6.43
2023-01-04T08:58:18.765Z,6.32
2023-01-04T08:59:18.783Z,6.32
2023-01-04T09:00:18.764Z,6.24
2023-01-04T09:01:18.874Z,6.21
2023-01-04T09:02:18.905Z,6.27
2023-01-04T09:03:18.770Z,6.24
2023-01-04T09:04:18.789Z,6.19
2023-01-04T09:05:22.505Z,6.27
2023-01-04T09:06:18.690Z,6.30
2023-01-04T09:07:19.715Z,6.30
2023-01-04T09:08:18.685Z,6.36
2023-01-04T09:09:18.675Z,6.35
2023-01-04T09:10:18.683Z,6.36
2023-01-04T09:11:18.663Z,6.33
2023-01-04T09:12:18.657Z,6.38
2023-01-04T09:13:18.641Z,6.39
2023-01-04T09:14:18.641Z,6.28
2023-01-04T09:15:18.676Z,6.38
2023-01-04T09:16:18.699Z,6.30
2023-01-04T09:17:18.618Z,6.35
2023-01-04T09:18:30.911Z,6.39
2023-01-04T09:19:22.320Z,6.38
2023-01-04T09:20:19.601Z,6.42
2023-01-04T09:21:18.593Z,6.32
2023-01-04T09:22:18.615Z,6.38
2023-01-04T09:23:18.564Z,6.33
2023-01-04T09:24:18.556Z,6.36
2023-01-04T09:25:18.563Z,6.38
2023-01-04T09:26:18.530Z,6.35
2023-01-04T09:27:18.519Z,6.43
2023-01-04T09:28:18.519Z,6.33
2023-01-04T09:29:18.510Z,6.42
2023-01-04T09:30:18.508Z,6.35
2023-01-04T09:31:18.534Z,6.45
2023-01-04T09:32:18.529Z,6.35
2023-01-04T09:33:18.475Z,6.36
2023-01-04T09:34:18.651Z,6.33
2023-01-04T09:35:18.469Z,6.38
2023-01-04T09:36:18.475Z,6.38
2023-01-04T09:37:18.447Z,6.36
2023-01-04T09:38:18.447Z,6.32
2023-01-04T09:39:23.167Z,6.38
2023-01-04T09:40:20.425Z,6.38
2023-01-04T09:41:18.416Z,6.46
2023-01-04T09:42:18.410Z,6.42
2023-01-04T09:43:20.971Z,6.45
2023-01-04T09:44:18.384Z,6.40
2023-01-04T09:45:25.865Z,6.39
2023-01-04T09:46:20.423Z,6.46
2023-01-04T09:47:18.408Z,6.46
2023-01-04T09:48:24.976Z,6.42
2023-01-04T09:49:20.370Z,6.43
2023-01-04T09:50:18.800Z,6.43
2023-01-04T09:51:18.345Z,6.43
2023-01-04T09:52:18.322Z,6.50
2023-01-04T09:53:18.300Z,6.55
2023-01-04T09:54:18.306Z,6.46
2023-01-04T09:55:38.757Z,6.45
2023-01-04T09:56:19.276Z,6.48
2023-01-04T09:57:18.283Z,6.48
2023-01-04T09:58:18.258Z,6.48
2023-01-04T09:59:18.250Z,6.51
2023-01-04T10:00:18.251Z,6.45
2023-01-04T10:01:18.421Z,6.54
2023-01-04T10:02:18.386Z,6.51
2023-01-04T10:03:18.400Z,6.57
2023-01-04T10:04:18.207Z,6.57
2023-01-04T10:05:18.234Z,6.65
2023-01-04T10:06:18.189Z,6.58
2023-01-04T10:07:18.196Z,6.60
2023-01-04T10:08:18.191Z,6.63
2023-01-04T10:09:18.159Z,6.60
2023-01-04T10:10:18.159Z,6.61
2023-01-04T10:11:18.148Z,6.65
2023-01-04T10:12:18.133Z,6.71
2023-01-04T10:13:18.130Z,6.61
2023-01-04T10:14:18.119Z,6.69
2023-01-04T10:15:18.117Z,6.65
2023-01-04T10:16:30.402Z,6.61
2023-01-04T10:17:35.396Z,6.65
2023-01-04T10:20:59.607Z,6.76
2023-01-04T10:21:32.168Z,6.73
2023-01-04T10:22:20.087Z,6.69
2023-01-04T10:23:18.035Z,6.64
2023-01-04T10:24:18.039Z,6.72
2023-01-04T10:25:18.039Z,6.72
2023-01-04T10:26:18.021Z,6.68
2023-01-04T10:27:18.001Z,6.57
2023-01-04T10:28:18.012Z,6.71
2023-01-04T10:29:17.992Z,6.69
2023-01-04T10:30:18.077Z,6.69
2023-01-04T10:31:39.808Z,6.69
2023-01-04T10:32:19.013Z,6.71
2023-01-04T10:33:17.948Z,6.71
2023-01-04T10:34:19.209Z,6.65
2023-01-04T10:35:18.957Z,6.76
2023-01-04T10:36:17.931Z,6.69
2023-01-04T10:37:17.921Z,6.78
2023-01-04T10:38:17.912Z,6.72
2023-01-04T10:39:18.900Z,6.69
2023-01-04T10:40:17.934Z,6.87
2023-01-04T10:41:17.883Z,6.89
2023-01-04T10:42:17.892Z,6.82
2023-01-04T10:43:17.863Z,6.96
2023-01-04T10:44:17.893Z,6.79
2023-01-04T10:45:17.855Z,6.89
2023-01-04T10:46:17.873Z,6.89
2023-01-04T10:47:17.982Z,6.82
2023-01-04T10:48:17.823Z,6.97
2023-01-04T10:49:17.826Z,6.96
2023-01-04T10:50:17.889Z,6.93
2023-01-04T10:51:17.810Z,6.91
2023-01-04T10:52:17.788Z,6.91
2023-01-04T10:53:17.773Z,6.97
2023-01-04T10:54:17.779Z,6.91
2023-01-04T10:55:17.771Z,6.93
2023-01-04T10:56:25.431Z,6.93
2023-01-04T10:57:18.748Z,6.94
2023-01-04T10:58:17.748Z,6.97
2023-01-04T10:59:17.727Z,7.05
2023-01-04T11:00:17.740Z,6.93
2023-01-04T11:01:17.959Z,6.94
2023-01-04T11:02:17.934Z,7.04
2023-01-04T11:03:17.858Z,6.96
2023-01-04T11:04:17.679Z,6.93
2023-01-04T11:05:17.680Z,6.97
2023-01-04T11:06:17.679Z,7.00
2023-01-04T11:07:17.663Z,6.93
2023-01-04T11:08:17.653Z,6.96
2023-01-04T11:09:24.538Z,6.94
2023-01-04T11:10:19.627Z,7.05
2023-01-04T11:11:17.631Z,7.01
2023-01-04T11:12:17.622Z,7.01
2023-01-04T11:13:17.607Z,7.09
2023-01-04T11:14:17.605Z,6.97
2023-01-04T11:15:17.585Z,7.07
2023-01-04T11:16:17.656Z,7.04
2023-01-04T11:17:17.570Z,7.05
2023-01-04T11:18:17.566Z,7.09
2023-01-04T11:19:17.556Z,7.04
2023-01-04T11:20:17.551Z,7.07
2023-01-04T11:21:17.547Z,7.11
2023-01-04T11:22:17.645Z,7.11
2023-01-04T11:23:17.624Z,7.08
2023-01-04T11:24:33.717Z,7.05
2023-01-04T11:25:36.267Z,7.07
2023-01-04T11:26:19.499Z,7.01
2023-01-04T11:27:20.863Z,7.08
2023-01-04T11:28:18.532Z,7.05
2023-01-04T11:29:17.471Z,7.09
2023-01-04T11:30:17.461Z,7.16
2023-01-04T11:31:17.501Z,7.09
2023-01-04T11:32:17.529Z,7.16
2023-01-04T11:33:17.423Z,7.16
2023-01-04T11:34:17.430Z,7.12
2023-01-04T11:35:17.409Z,7.15
2023-01-04T11:36:17.408Z,7.09
2023-01-04T11:37:17.398Z,7.15
2023-01-04T11:38:17.390Z,7.11
2023-01-04T11:39:17.395Z,7.16
2023-01-04T11:40:17.368Z,7.14
2023-01-04T11:41:17.370Z,7.16
2023-01-04T11:42:17.353Z,7.33
2023-01-04T11:43:17.343Z,7.21
2023-01-04T11:44:17.336Z,7.19
2023-01-04T11:45:17.325Z,7.24
2023-01-04T11:46:17.382Z,7.27
2023-01-04T11:47:17.350Z,7.23
2023-01-04T11:48:17.305Z,7.29
2023-01-04T11:49:17.296Z,7.26
2023-01-04T11:50:17.275Z,7.36
2023-01-04T11:51:17.423Z,7.34
2023-01-04T11:52:17.254Z,7.34
2023-01-04T11:53:17.252Z,7.47
2023-01-04T11:54:17.251Z,7.34
2023-01-04T11:55:17.274Z,7.37
2023-01-04T11:56:17.236Z,7.36
2023-01-04T11:57:17.221Z,7.44
2023-01-04T11:58:17.210Z,7.44
2023-01-04T11:59:24.766Z,7.39
2023-01-04T12:00:19.189Z,7.52
2023-01-04T12:01:17.228Z,7.50
2023-01-04T12:02:42.102Z,7.58
2023-01-04T12:03:19.267Z,7.47
2023-01-04T12:04:17.163Z,7.52
2023-01-04T12:05:19.980Z,7.63
2023-01-04T12:06:18.146Z,7.63
2023-01-04T12:07:17.131Z,7.60
2023-01-04T12:08:17.119Z,7.69
2023-01-04T12:09:17.121Z,7.66
2023-01-04T12:10:17.107Z,7.71
2023-01-04T12:11:17.112Z,7.69
2023-01-04T12:12:17.094Z,7.73
2023-01-04T12:13:17.078Z,7.60
2023-01-04T12:14:17.076Z,7.66
2023-01-04T12:15:17.084Z,7.67
2023-01-04T12:16:17.061Z,7.69
2023-01-04T12:17:17.047Z,7.67
2023-01-04T12:18:17.037Z,7.67
2023-01-04T12:19:17.027Z,7.62
2023-01-04T12:20:19.591Z,7.73
2023-01-04T12:21:18.026Z,7.79
2023-01-04T12:22:17.024Z,7.79
2023-01-04T12:23:16.993Z,7.77
2023-01-04T12:24:16.983Z,7.79
2023-01-04T12:25:16.976Z,7.81
2023-01-04T12:26:16.978Z,7.73
2023-01-04T12:27:16.955Z,7.85
2023-01-04T12:28:22.646Z,7.86
2023-01-04T12:29:18.940Z,7.81
2023-01-04T12:30:16.926Z,7.82
2023-01-04T12:31:19.283Z,7.84
2023-01-04T12:32:16.918Z,7.82
2023-01-04T12:33:16.905Z,7.82
2023-01-04T12:34:16.920Z,7.81
2023-01-04T12:35:16.884Z,7.76
2023-01-04T12:36:16.899Z,7.84
2023-01-04T12:37:16.870Z,7.84
2023-01-04T12:38:16.859Z,7.81
2023-01-04T12:39:16.844Z,7.86
2023-01-04T12:40:16.849Z,7.82
2023-01-04T12:41:16.848Z,7.91
2023-01-04T12:42:16.825Z,7.86
2023-01-04T12:43:16.808Z,7.86
2023-01-04T12:44:16.805Z,7.88
2023-01-04T12:45:16.802Z,7.96
2023-01-04T12:46:16.860Z,7.96
2023-01-04T12:47:16.778Z,8.02
2023-01-04T12:48:16.774Z,8.02
2023-01-04T12:49:16.763Z,7.91
2023-01-04T12:50:16.827Z,8.04
2023-01-04T12:51:31.247Z,8.02
2023-01-04T12:52:43.076Z,8.06
2023-01-04T12:53:29.913Z,7.96
2023-01-04T12:54:18.723Z,7.95
2023-01-04T12:55:16.706Z,8.00
2023-01-04T12:56:16.713Z,8.09
2023-01-04T12:57:16.712Z,8.07
2023-01-04T12:58:16.746Z,7.94
2023-01-04T12:59:25.542Z,8.02
2023-01-04T13:00:18.657Z,8.00
2023-01-04T13:01:16.742Z,8.07
2023-01-04T13:02:16.795Z,8.07
2023-01-04T13:03:17.118Z,8.10
2023-01-04T13:04:16.684Z,8.12
2023-01-04T13:06:18.836Z,8.14
2023-01-04T13:07:17.592Z,8.14
2023-01-04T13:08:16.609Z,8.09
2023-01-04T13:09:16.601Z,8.12
2023-01-04T13:10:16.568Z,8.18
2023-01-04T13:11:16.559Z,8.07
2023-01-04T13:12:16.565Z,8.13
2023-01-04T13:13:16.538Z,8.18
2023-01-04T13:14:16.542Z,8.09
2023-01-04T13:15:19.488Z,8.06
2023-01-04T13:16:17.601Z,8.09
2023-01-04T13:17:16.626Z,8.07
2023-01-04T13:18:16.494Z,8.13
2023-01-04T13:19:16.496Z,8.03
2023-01-04T13:20:16.482Z,8.09
2023-01-04T13:21:16.513Z,8.09